Time;durP1;ratioP1;P1;durP2;ratioP2;P2;SDS_P1;SDS_P2;PMS_P1;PMS_P2;Temp;Humidity;BMP_temperature;BMP_pressure;BME280_temperature;BME280_humidity;BME280_pressure;Samples;Min_cycle;Max_cycle;Signal;HPM_P1;HPM_P2
2023/05/04 00:01:24;;;;;;;;;;;14.20;50.00;;;;;;5069310;28;19992;-67
2023/05/04 00:03:49;;;;;;;;;;;14.20;50.00;;;;;;5069279;28;19962;-68
2023/05/04 00:06:15;;;;;;;;;;;14.20;50.00;;;;;;5067426;28;19931;-68
2023/05/04 00:08:40;;;;;;;;;;;14.20;50.10;;;;;;5085704;28;19920;-68
2023/05/04 00:11:06;;;;;;;;;;;14.20;50.10;;;;;;5062706;28;19916;-68
2023/05/04 00:13:31;;;;;;;;;;;14.20;50.10;;;;;;5070759;28;19923;-68
2023/05/04 00:15:57;;;;;;;;;;;14.20;50.10;;;;;;5069024;28;20041;-68
2023/05/04 00:18:23;;;;;;;;;;;14.20;50.20;;;;;;5089723;28;19916;-68
2023/05/04 00:20:48;;;;;;;;;;;14.10;50.10;;;;;;5091078;28;19945;-67
2023/05/04 00:23:14;;;;;;;;;;;14.10;50.10;;;;;;5089419;28;20375;-68
2023/05/04 00:25:39;;;;;;;;;;;14.10;50.10;;;;;;5089540;28;19927;-68
2023/05/04 00:28:05;;;;;;;;;;;14.10;50.10;;;;;;5101171;28;19920;-67
2023/05/04 00:30:31;;;;;;;;;;;14.10;50.10;;;;;;5071842;28;19916;-67
2023/05/04 00:32:56;;;;;;;;;;;14.10;50.20;;;;;;5105445;28;19923;-68
2023/05/04 00:35:22;;;;;;;;;;;14.10;50.20;;;;;;5069036;28;20383;-67
2023/05/04 00:37:47;;;;;;;;;;;14.10;50.20;;;;;;5105726;28;19923;-67
2023/05/04 00:40:13;;;;;;;;;;;14.10;50.20;;;;;;5070902;28;19916;-67
2023/05/04 00:42:38;;;;;;;;;;;14.10;50.20;;;;;;5069656;28;19916;-67
2023/05/04 00:45:04;;;;;;;;;;;14.00;50.20;;;;;;5104825;28;19920;-67
2023/05/04 00:47:29;;;;;;;;;;;14.00;50.20;;;;;;5071430;28;19923;-67
2023/05/04 00:49:55;;;;;;;;;;;14.10;51.00;;;;;;5105498;28;19919;-67
2023/05/04 00:52:21;;;;;;;;;;;14.00;50.20;;;;;;5086541;28;19916;-68
2023/05/04 00:54:47;;;;;;;;;;;14.00;50.20;;;;;;5088338;28;20006;-67
2023/05/04 00:57:14;;;;;;;;;;;14.00;50.20;;;;;;5070562;28;20391;-67
2023/05/04 00:59:40;;;;;;;;;;;14.00;50.20;;;;;;5067857;28;19916;-68
2023/05/04 01:02:05;;;;;;;;;;;14.00;50.20;;;;;;5105561;28;20310;-67
2023/05/04 01:04:31;;;;;;;;;;;14.00;50.20;;;;;;5087764;28;20388;-67
2023/05/04 01:06:59;;;;;;;;;;;14.00;50.20;;;;;;5089199;28;19920;-67
2023/05/04 01:09:44;;;;;;;;;;;13.90;50.20;;;;;;5090062;28;19923;-68
2023/05/04 01:12:16;;;;;;;;;;;14.00;50.20;;;;;;5090550;28;19916;-68
2023/05/04 01:14:42;;;;;;;;;;;13.90;50.20;;;;;;5070337;28;19923;-67
2023/05/04 01:17:07;;;;;;;;;;;14.00;50.30;;;;;;5090256;28;20367;-67
2023/05/04 01:19:33;;;;;;;;;;;13.90;50.20;;;;;;5071434;28;19916;-68
2023/05/04 01:21:59;;;;;;;;;;;14.00;50.30;;;;;;5084617;28;20084;-68
2023/05/04 01:24:25;;;;;;;;;;;13.90;50.20;;;;;;5104019;28;19923;-68
2023/05/04 01:26:54;;;;;;;;;;;13.90;50.30;;;;;;5071548;28;19962;-68
2023/05/04 01:29:24;;;;;;;;;;;13.90;51.00;;;;;;5085664;28;19927;-68
2023/05/04 01:31:51;;;;;;;;;;;13.90;50.30;;;;;;5068805;28;19963;-68
2023/05/04 01:34:17;;;;;;;;;;;13.90;50.30;;;;;;5103279;28;19935;-67
2023/05/04 01:36:43;;;;;;;;;;;13.90;50.30;;;;;;5103054;28;19916;-67
2023/05/04 01:39:09;;;;;;;;;;;13.90;50.30;;;;;;5070765;28;19920;-68
2023/05/04 01:41:37;;;;;;;;;;;13.90;50.30;;;;;;5071338;28;19981;-67
2023/05/04 01:44:03;;;;;;;;;;;13.90;50.30;;;;;;5087876;28;20319;-67
2023/05/04 01:46:28;;;;;;;;;;;13.90;50.30;;;;;;5103191;28;19948;-67
2023/05/04 01:48:54;;;;;;;;;;;13.90;50.30;;;;;;5069240;28;19920;-68
2023/05/04 01:51:20;;;;;;;;;;;13.80;50.30;;;;;;5087659;28;20367;-67
2023/05/04 01:53:45;;;;;;;;;;;13.90;50.40;;;;;;5086724;28;20332;-67
2023/05/04 01:56:11;;;;;;;;;;;13.90;50.40;;;;;;5069970;28;19917;-67
2023/05/04 01:58:36;;;;;;;;;;;13.80;50.30;;;;;;5087952;28;19916;-67
2023/05/04 02:01:01;;;;;;;;;;;13.80;50.30;;;;;;5088234;28;20532;-67
2023/05/04 02:03:27;;;;;;;;;;;13.80;50.30;;;;;;5087277;28;19943;-67
2023/05/04 02:05:52;;;;;;;;;;;13.80;50.30;;;;;;5087231;28;19920;-68
2023/05/04 02:08:18;;;;;;;;;;;13.80;50.30;;;;;;5068673;28;19923;-68
2023/05/04 02:10:44;;;;;;;;;;;13.80;50.30;;;;;;5086726;28;19959;-67
2023/05/04 02:13:09;;;;;;;;;;;13.80;50.30;;;;;;5068723;28;19924;-67
2023/05/04 02:15:35;;;;;;;;;;;13.80;50.30;;;;;;5087665;28;19916;-68
2023/05/04 02:18:00;;;;;;;;;;;13.80;50.30;;;;;;5087860;28;19917;-68
2023/05/04 02:20:26;;;;;;;;;;;13.80;50.30;;;;;;5064667;28;20375;-68
2023/05/04 02:22:51;;;;;;;;;;;13.80;50.40;;;;;;5103683;28;19955;-67
2023/05/04 02:25:17;;;;;;;;;;;13.80;50.40;;;;;;5069353;28;19921;-68
2023/05/04 02:27:42;;;;;;;;;;;13.80;50.40;;;;;;5068462;28;19923;-67
2023/05/04 02:30:08;;;;;;;;;;;13.80;50.40;;;;;;5070357;28;20224;-67
2023/05/04 02:32:33;;;;;;;;;;;13.80;50.40;;;;;;5102649;28;20445;-67
2023/05/04 02:34:59;;;;;;;;;;;13.70;50.30;;;;;;5068117;28;19916;-67
2023/05/04 02:37:24;;;;;;;;;;;13.70;50.30;;;;;;5086818;28;19923;-67
2023/05/04 02:39:50;;;;;;;;;;;13.70;50.40;;;;;;5102033;28;19916;-67
2023/05/04 02:42:16;;;;;;;;;;;13.70;50.40;;;;;;5066087;28;19920;-67
2023/05/04 02:44:41;;;;;;;;;;;13.70;50.30;;;;;;5068997;28;19944;-67
2023/05/04 02:47:07;;;;;;;;;;;13.70;50.40;;;;;;5068637;28;19966;-67
2023/05/04 02:49:32;;;;;;;;;;;13.70;50.40;;;;;;5087720;28;19915;-67
2023/05/04 02:51:58;;;;;;;;;;;13.70;50.40;;;;;;5099683;28;20393;-67
2023/05/04 02:54:23;;;;;;;;;;;13.70;50.40;;;;;;5102274;28;19916;-67
2023/05/04 02:56:49;;;;;;;;;;;13.70;50.40;;;;;;5088228;28;20352;-67
2023/05/04 02:59:14;;;;;;;;;;;13.70;50.40;;;;;;5068063;28;20391;-67
2023/05/04 03:01:40;;;;;;;;;;;13.70;50.40;;;;;;5086654;28;20003;-67
2023/05/04 03:04:06;;;;;;;;;;;13.70;50.40;;;;;;5086269;28;19963;-68
2023/05/04 03:06:32;;;;;;;;;;;13.60;50.30;;;;;;5087495;28;19927;-68
2023/05/04 03:08:57;;;;;;;;;;;13.70;50.50;;;;;;5068521;28;20294;-68
2023/05/04 03:11:23;;;;;;;;;;;13.70;50.40;;;;;;5085918;28;20486;-68
2023/05/04 03:13:48;;;;;;;;;;;13.70;50.40;;;;;;5068722;28;19927;-67
2023/05/04 03:16:13;;;;;;;;;;;13.70;50.50;;;;;;5067908;28;20376;-68
2023/05/04 03:18:39;;;;;;;;;;;13.70;50.50;;;;;;5066357;28;19928;-68
2023/05/04 03:21:05;;;;;;;;;;;13.70;50.50;;;;;;5068562;28;19958;-68
2023/05/04 03:23:30;;;;;;;;;;;13.60;50.40;;;;;;5069052;28;20058;-68
2023/05/04 03:25:55;;;;;;;;;;;13.60;50.40;;;;;;5068838;28;19939;-68
2023/05/04 03:28:21;;;;;;;;;;;13.60;50.50;;;;;;5064968;28;19993;-68
2023/05/04 03:30:46;;;;;;;;;;;13.60;50.50;;;;;;5063368;28;19917;-68
2023/05/04 03:33:12;;;;;;;;;;;13.60;50.50;;;;;;5087005;28;19977;-68
2023/05/04 03:35:38;;;;;;;;;;;13.60;50.50;;;;;;5068526;28;19916;-68
2023/05/04 03:38:05;;;;;;;;;;;13.60;50.50;;;;;;5087421;28;19916;-68
2023/05/04 03:40:31;;;;;;;;;;;13.60;50.50;;;;;;5101333;28;19916;-68
2023/05/04 03:42:56;;;;;;;;;;;13.60;50.50;;;;;;5065474;28;19922;-68
2023/05/04 03:45:22;;;;;;;;;;;13.60;50.60;;;;;;5069355;28;19969;-68
2023/05/04 03:47:47;;;;;;;;;;;13.60;50.50;;;;;;5104170;28;19916;-67
2023/05/04 03:50:13;;;;;;;;;;;13.60;50.50;;;;;;5090492;28;19960;-68
2023/05/04 03:52:38;;;;;;;;;;;13.60;50.60;;;;;;5089626;28;19960;-68
2023/05/04 03:55:04;;;;;;;;;;;13.60;50.60;;;;;;5071731;28;20271;-68
2023/05/04 03:57:29;;;;;;;;;;;13.60;50.60;;;;;;5071218;28;19961;-68
2023/05/04 03:59:55;;;;;;;;;;;13.50;50.50;;;;;;5071384;28;19974;-68
2023/05/04 04:02:20;;;;;;;;;;;13.60;50.60;;;;;;5071660;28;20355;-68
2023/05/04 04:04:46;;;;;;;;;;;13.50;50.50;;;;;;5090921;28;19927;-68
2023/05/04 04:07:11;;;;;;;;;;;13.60;51.30;;;;;;5089150;28;19927;-68
2023/05/04 04:09:37;;;;;;;;;;;13.50;50.50;;;;;;5090516;28;20053;-68
2023/05/04 04:12:02;;;;;;;;;;;13.50;50.50;;;;;;5089180;28;20382;-68
2023/05/04 04:14:28;;;;;;;;;;;13.50;50.50;;;;;;5073303;28;19923;-68
2023/05/04 04:16:53;;;;;;;;;;;13.50;50.60;;;;;;5072052;28;19918;-68
2023/05/04 04:19:19;;;;;;;;;;;13.50;50.50;;;;;;5089509;28;19923;-68
2023/05/04 04:21:44;;;;;;;;;;;13.50;50.60;;;;;;5068671;28;19956;-68
2023/05/04 04:24:10;;;;;;;;;;;13.50;50.60;;;;;;5091327;28;20275;-68
2023/05/04 04:26:35;;;;;;;;;;;13.50;50.60;;;;;;5071032;28;19920;-68
2023/05/04 04:29:01;;;;;;;;;;;13.50;50.60;;;;;;5085777;28;19991;-68
2023/05/04 04:31:26;;;;;;;;;;;13.50;50.60;;;;;;5089144;28;19924;-69
2023/05/04 04:33:52;;;;;;;;;;;13.50;50.60;;;;;;5090237;28;20325;-68
2023/05/04 04:36:18;;;;;;;;;;;13.50;50.60;;;;;;5071346;28;20011;-68
2023/05/04 04:38:43;;;;;;;;;;;13.50;50.60;;;;;;5088980;28;19916;-68
2023/05/04 04:41:09;;;;;;;;;;;13.50;50.60;;;;;;5089769;28;19924;-68
2023/05/04 04:43:35;;;;;;;;;;;13.50;50.60;;;;;;5070610;28;19969;-68
2023/05/04 04:46:01;;;;;;;;;;;13.40;50.50;;;;;;5088437;28;20006;-68
2023/05/04 04:48:27;;;;;;;;;;;13.40;50.50;;;;;;5103885;28;19932;-68
2023/05/04 04:50:52;;;;;;;;;;;13.50;50.60;;;;;;5090057;28;19923;-68
2023/05/04 04:53:18;;;;;;;;;;;13.40;50.60;;;;;;5069805;28;19916;-68
2023/05/04 04:55:44;;;;;;;;;;;13.40;50.60;;;;;;5105928;28;19916;-68
2023/05/04 04:58:10;;;;;;;;;;;13.40;50.60;;;;;;5088010;28;19938;-68
2023/05/04 05:00:36;;;;;;;;;;;13.40;50.60;;;;;;5070940;28;19920;-68
2023/05/04 05:03:02;;;;;;;;;;;13.40;50.60;;;;;;5070628;28;20499;-68
2023/05/04 05:05:27;;;;;;;;;;;13.50;50.70;;;;;;5069857;28;19949;-68
2023/05/04 05:07:53;;;;;;;;;;;13.40;50.60;;;;;;5068261;28;19916;-68
2023/05/04 05:10:20;;;;;;;;;;;13.40;50.60;;;;;;5089070;28;19922;-68
2023/05/04 05:12:45;;;;;;;;;;;13.40;50.70;;;;;;5072285;28;19931;-68
2023/05/04 05:15:11;;;;;;;;;;;13.40;50.60;;;;;;5070247;28;19916;-68
2023/05/04 05:17:40;;;;;;;;;;;13.40;50.60;;;;;;5088998;28;19917;-68
2023/05/04 05:20:09;;;;;;;;;;;13.40;50.70;;;;;;5090080;28;20019;-69
2023/05/04 05:22:35;;;;;;;;;;;13.40;50.70;;;;;;5087761;28;19916;-69
2023/05/04 05:25:01;;;;;;;;;;;13.40;50.70;;;;;;5104096;28;19920;-68
2023/05/04 05:27:28;;;;;;;;;;;13.40;50.70;;;;;;5102092;28;19916;-68
2023/05/04 05:29:53;;;;;;;;;;;13.40;50.70;;;;;;5088508;28;20036;-68
2023/05/04 05:32:19;;;;;;;;;;;13.40;50.70;;;;;;5088939;28;19940;-69
2023/05/04 05:34:44;;;;;;;;;;;13.40;50.70;;;;;;5069835;28;20363;-68
2023/05/04 05:37:10;;;;;;;;;;;13.40;50.70;;;;;;5069423;28;20271;-68
2023/05/04 05:39:35;;;;;;;;;;;13.40;50.70;;;;;;5087717;28;19921;-68
2023/05/04 05:42:02;;;;;;;;;;;13.40;50.70;;;;;;5087407;28;19916;-68
2023/05/04 05:44:27;;;;;;;;;;;13.40;50.70;;;;;;5068534;28;19927;-68
2023/05/04 05:46:53;;;;;;;;;;;13.40;50.80;;;;;;5089099;28;19920;-68
2023/05/04 05:49:18;;;;;;;;;;;13.40;50.70;;;;;;5069291;28;19916;-68
2023/05/04 05:51:44;;;;;;;;;;;13.30;50.70;;;;;;5101020;28;19923;-68
2023/05/04 05:54:10;;;;;;;;;;;13.40;50.80;;;;;;5089165;28;20007;-68
2023/05/04 05:56:35;;;;;;;;;;;13.40;50.80;;;;;;5068974;28;19919;-68
2023/05/04 05:59:01;;;;;;;;;;;13.30;50.70;;;;;;5087965;28;19923;-68
2023/05/04 06:01:26;;;;;;;;;;;13.40;50.80;;;;;;5066451;28;20002;-68
2023/05/04 06:03:52;;;;;;;;;;;13.40;50.80;;;;;;5088345;28;19927;-68
2023/05/04 06:06:17;;;;;;;;;;;13.40;50.80;;;;;;5102898;28;19924;-68
2023/05/04 06:08:43;;;;;;;;;;;13.40;50.90;;;;;;5068658;28;19981;-68
2023/05/04 06:11:10;;;;;;;;;;;13.40;50.90;;;;;;5068557;28;19924;-68
2023/05/04 06:13:36;;;;;;;;;;;13.40;50.90;;;;;;5102671;28;19920;-69
2023/05/04 06:16:01;;;;;;;;;;;13.40;51.00;;;;;;5102911;28;20283;-68
2023/05/04 06:18:27;;;;;;;;;;;13.40;50.90;;;;;;5086784;28;19923;-68
2023/05/04 06:21:00;;;;;;;;;;;13.40;51.00;;;;;;5069967;28;20371;-68
2023/05/04 06:23:27;;;;;;;;;;;13.40;50.90;;;;;;5069237;28;19916;-68
2023/05/04 06:25:53;;;;;;;;;;;13.40;51.00;;;;;;5088345;28;19963;-68
2023/05/04 06:28:18;;;;;;;;;;;13.40;51.00;;;;;;5087174;28;19971;-68
2023/05/04 06:30:44;;;;;;;;;;;13.40;51.00;;;;;;5086215;28;19924;-68
2023/05/04 06:33:09;;;;;;;;;;;13.40;51.00;;;;;;5069266;28;19969;-69
2023/05/04 06:35:35;;;;;;;;;;;13.40;51.10;;;;;;5086413;28;20333;-68
2023/05/04 06:38:00;;;;;;;;;;;13.40;51.10;;;;;;5086561;28;19924;-68
2023/05/04 06:40:26;;;;;;;;;;;13.40;51.20;;;;;;5102201;28;20398;-68
2023/05/04 06:42:51;;;;;;;;;;;13.40;51.20;;;;;;5103840;28;20014;-68
2023/05/04 06:45:17;;;;;;;;;;;13.40;51.40;;;;;;5068840;28;20347;-68
2023/05/04 06:47:43;;;;;;;;;;;13.40;51.20;;;;;;5068802;28;19916;-68
2023/05/04 06:50:09;;;;;;;;;;;13.40;51.30;;;;;;5086789;28;19963;-68
2023/05/04 06:52:39;;;;;;;;;;;13.40;51.20;;;;;;5069717;28;19923;-68
2023/05/04 06:55:06;;;;;;;;;;;13.40;52.00;;;;;;5085371;28;19925;-68
2023/05/04 06:57:31;;;;;;;;;;;13.40;51.30;;;;;;5086196;28;19916;-68
2023/05/04 06:59:57;;;;;;;;;;;13.40;51.30;;;;;;5102310;28;19916;-68
2023/05/04 07:02:22;;;;;;;;;;;13.40;51.30;;;;;;5063450;28;19927;-68
2023/05/04 07:04:48;;;;;;;;;;;13.40;51.40;;;;;;5084509;28;20363;-68
2023/05/04 07:07:13;;;;;;;;;;;13.40;51.50;;;;;;5067971;28;20364;-69
2023/05/04 07:09:40;;;;;;;;;;;13.50;51.60;;;;;;5102799;28;20303;-70
2023/05/04 07:12:05;;;;;;;;;;;13.60;52.30;;;;;;5068440;28;19920;-71
2023/05/04 07:14:31;;;;;;;;;;;13.60;52.90;;;;;;5087919;28;20313;-74
2023/05/04 07:16:56;;;;;;;;;;;13.70;53.20;;;;;;5088029;28;19920;-67
2023/05/04 07:19:22;;;;;;;;;;;13.80;53.60;;;;;;5089245;28;20278;-69
2023/05/04 07:21:47;;;;;;;;;;;13.90;53.70;;;;;;5084776;28;19920;-69
2023/05/04 07:24:13;;;;;;;;;;;14.00;53.80;;;;;;5107592;28;20403;-70
2023/05/04 07:26:39;;;;;;;;;;;14.00;53.80;;;;;;5074077;28;19924;-67
2023/05/04 07:29:04;;;;;;;;;;;14.10;53.90;;;;;;5090932;28;19999;-69
2023/05/04 07:31:30;;;;;;;;;;;14.10;54.00;;;;;;5091768;28;20457;-68
2023/05/04 07:33:55;;;;;;;;;;;14.10;53.70;;;;;;5093169;28;20389;-70
2023/05/04 07:36:23;;;;;;;;;;;14.10;53.50;;;;;;5071722;28;19920;-68
2023/05/04 07:38:49;;;;;;;;;;;14.20;53.40;;;;;;5089429;28;19920;-69
2023/05/04 07:41:14;;;;;;;;;;;14.20;53.30;;;;;;5106024;28;20354;-68
2023/05/04 07:43:40;;;;;;;;;;;14.20;53.20;;;;;;5071253;28;19927;-69
2023/05/04 07:46:05;;;;;;;;;;;14.20;53.20;;;;;;5105221;28;19997;-68
2023/05/04 07:48:32;;;;;;;;;;;14.30;53.40;;;;;;5088932;28;20364;-70
2023/05/04 07:50:57;;;;;;;;;;;14.30;53.40;;;;;;5076306;28;19924;-71
2023/05/04 07:53:25;;;;;;;;;;;14.30;53.50;;;;;;5071310;28;20072;-68
2023/05/04 07:55:51;;;;;;;;;;;14.30;53.60;;;;;;5090084;28;20015;-68
2023/05/04 07:58:16;;;;;;;;;;;14.30;53.40;;;;;;5088901;28;19927;-68
2023/05/04 08:00:42;;;;;;;;;;;14.40;53.30;;;;;;5090778;28;19920;-67
2023/05/04 08:03:07;;;;;;;;;;;14.40;53.30;;;;;;5073613;28;20348;-69
2023/05/04 08:05:33;;;;;;;;;;;14.40;53.30;;;;;;5089261;28;19934;-70
2023/05/04 08:07:58;;;;;;;;;;;14.40;53.40;;;;;;5104438;28;19924;-71
2023/05/04 08:10:24;;;;;;;;;;;14.40;53.40;;;;;;5103862;28;20038;-67
2023/05/04 08:12:50;;;;;;;;;;;14.40;53.30;;;;;;5072654;28;19920;-68
2023/05/04 08:15:16;;;;;;;;;;;14.40;53.30;;;;;;5089670;28;19923;-66
2023/05/04 08:17:41;;;;;;;;;;;14.50;53.50;;;;;;5089754;28;19966;-67
2023/05/04 08:20:08;;;;;;;;;;;14.50;53.70;;;;;;5071381;28;19970;-68
2023/05/04 08:22:33;;;;;;;;;;;14.50;53.90;;;;;;5072779;28;19920;-68
2023/05/04 08:24:59;;;;;;;;;;;14.60;53.90;;;;;;5104090;28;19989;-67
2023/05/04 08:27:24;;;;;;;;;;;14.60;53.70;;;;;;5070331;28;19921;-67
2023/05/04 08:29:50;;;;;;;;;;;14.60;53.60;;;;;;5070431;28;19956;-67
2023/05/04 08:32:16;;;;;;;;;;;14.60;53.50;;;;;;5105873;28;19978;-68
2023/05/04 08:34:41;;;;;;;;;;;14.60;53.50;;;;;;5070762;28;19927;-67
2023/05/04 08:37:07;;;;;;;;;;;14.60;53.50;;;;;;5088312;28;19920;-68
2023/05/04 08:39:33;;;;;;;;;;;14.60;53.50;;;;;;5071042;28;19920;-67
2023/05/04 08:41:58;;;;;;;;;;;14.60;53.50;;;;;;5071839;28;20256;-66
2023/05/04 08:44:24;;;;;;;;;;;14.60;53.50;;;;;;5070362;28;19962;-67
2023/05/04 08:46:52;;;;;;;;;;;14.60;53.50;;;;;;5070173;28;19931;-66
2023/05/04 08:49:18;;;;;;;;;;;14.60;53.50;;;;;;5069935;28;19927;-66
2023/05/04 08:51:44;;;;;;;;;;;14.60;53.60;;;;;;5073096;28;19966;-67
2023/05/04 08:54:10;;;;;;;;;;;14.50;53.60;;;;;;5089618;28;20383;-67
2023/05/04 08:56:37;;;;;;;;;;;14.50;53.60;;;;;;5104409;28;19924;-67
2023/05/04 08:59:02;;;;;;;;;;;14.50;53.60;;;;;;5104516;28;19920;-66
2023/05/04 09:01:28;;;;;;;;;;;14.50;53.70;;;;;;5070587;28;20065;-66
2023/05/04 09:03:55;;;;;;;;;;;14.40;53.70;;;;;;5071092;28;19931;-67
2023/05/04 09:06:21;;;;;;;;;;;14.40;53.70;;;;;;5068601;28;20880;-66
2023/05/04 09:08:46;;;;;;;;;;;14.40;53.80;;;;;;5069194;28;19975;-67
2023/05/04 09:11:12;;;;;;;;;;;14.40;53.80;;;;;;5099787;28;19965;-66
2023/05/04 09:13:38;;;;;;;;;;;14.40;53.80;;;;;;5069468;28;19916;-66
2023/05/04 09:16:03;;;;;;;;;;;14.40;53.80;;;;;;5086702;28;19931;-66
2023/05/04 09:21:27;;;;;;;;;;;14.40;53.80;;;;;;5071078;28;19912;-68
2023/05/04 09:23:52;;;;;;;;;;;14.40;53.80;;;;;;5067968;28;20402;-66
2023/05/04 09:26:26;;;;;;;;;;;14.40;53.70;;;;;;5072155;28;19975;-66
2023/05/04 09:28:51;;;;;;;;;;;14.40;53.60;;;;;;5073994;28;19983;-66
2023/05/04 09:31:17;;;;;;;;;;;14.40;53.50;;;;;;5072641;28;19920;-68
2023/05/04 09:33:43;;;;;;;;;;;14.40;53.60;;;;;;5068129;28;19927;-66
2023/05/04 09:36:13;;;;;;;;;;;14.40;53.50;;;;;;5065392;28;20454;-66
2023/05/04 09:38:39;;;;;;;;;;;14.50;53.30;;;;;;5071216;28;19974;-67
2023/05/04 09:41:05;;;;;;;;;;;14.40;53.50;;;;;;5073426;28;19964;-66
2023/05/04 09:43:38;;;;;;;;;;;14.50;53.70;;;;;;5072980;28;19974;-67
2023/05/04 09:46:04;;;;;;;;;;;14.40;53.60;;;;;;5073513;28;19928;-66
2023/05/04 09:48:30;;;;;;;;;;;14.50;53.60;;;;;;5069165;28;19948;-66
2023/05/04 09:51:00;;;;;;;;;;;14.50;53.30;;;;;;5068725;28;20368;-67
2023/05/04 09:53:26;;;;;;;;;;;14.50;53.80;;;;;;5072857;28;19920;-66
2023/05/04 09:55:59;;;;;;;;;;;14.50;53.30;;;;;;5073163;28;19972;-71
2023/05/04 09:58:25;;;;;;;;;;;14.50;53.60;;;;;;5072019;28;19927;-68
2023/05/04 10:00:52;;;;;;;;;;;14.50;53.80;;;;;;5071991;28;20447;-69
2023/05/04 10:03:19;;;;;;;;;;;14.50;53.50;;;;;;5073897;28;20375;-67
2023/05/04 10:05:46;;;;;;;;;;;14.50;53.50;;;;;;5074223;28;20299;-68
2023/05/04 10:08:11;;;;;;;;;;;14.50;53.40;;;;;;5070791;28;20368;-67
2023/05/04 10:10:37;;;;;;;;;;;14.50;53.40;;;;;;5071747;28;19921;-68
2023/05/04 10:13:03;;;;;;;;;;;14.50;53.40;;;;;;5071010;28;19925;-67
2023/05/04 10:15:28;;;;;;;;;;;14.60;53.40;;;;;;5074015;28;20371;-67
2023/05/04 10:18:00;;;;;;;;;;;14.50;53.30;;;;;;5072669;28;19927;-67
2023/05/04 10:20:46;;;;;;;;;;;14.50;53.40;;;;;;5070999;28;19932;-67
2023/05/04 10:28:49;;;;;;;;;;;14.50;53.40;;;;;;5062095;28;19913;-68
2023/05/04 10:31:16;;;;;;;;;;;14.50;53.80;;;;;;5065028;28;20370;-67
2023/05/04 10:33:42;;;;;;;;;;;14.50;53.80;;;;;;5062232;28;19920;-67
2023/05/04 10:36:08;;;;;;;;;;;14.50;53.50;;;;;;5059761;28;19927;-67
2023/05/04 10:38:34;;;;;;;;;;;14.50;53.80;;;;;;5079140;28;19921;-67
2023/05/04 10:40:59;;;;;;;;;;;14.50;53.50;;;;;;5078983;28;19932;-68
2023/05/04 10:43:27;;;;;;;;;;;14.50;53.60;;;;;;5063308;28;19957;-67
2023/05/04 10:45:56;;;;;;;;;;;14.50;54.10;;;;;;5063211;28;19943;-68
2023/05/04 10:48:32;;;;;;;;;;;14.40;54.70;;;;;;5061359;28;19932;-68
2023/05/04 10:50:57;;;;;;;;;;;14.50;54.00;;;;;;5062794;28;19920;-67
2023/05/04 10:53:29;;;;;;;;;;;14.50;53.90;;;;;;5061425;28;19947;-67
2023/05/04 10:55:55;;;;;;;;;;;14.50;54.20;;;;;;5081194;28;19925;-68
2023/05/04 10:58:26;;;;;;;;;;;14.50;53.80;;;;;;5062730;28;20015;-67
2023/05/04 11:00:52;;;;;;;;;;;14.50;54.10;;;;;;5064518;28;20369;-69
2023/05/04 11:03:17;;;;;;;;;;;14.50;54.20;;;;;;5061534;28;19921;-67
2023/05/04 11:05:44;;;;;;;;;;;14.50;54.10;;;;;;5060451;28;19927;-68
2023/05/04 11:08:18;;;;;;;;;;;14.50;54.10;;;;;;5061182;28;19933;-67
2023/05/04 11:10:44;;;;;;;;;;;14.50;54.20;;;;;;5062477;28;20459;-67
2023/05/04 11:13:11;;;;;;;;;;;14.50;54.30;;;;;;5083436;28;20447;-69
2023/05/04 11:15:45;;;;;;;;;;;14.50;54.30;;;;;;5063465;28;20299;-67
2023/05/04 11:18:10;;;;;;;;;;;14.50;54.10;;;;;;5063732;28;19921;-69
2023/05/04 11:20:36;;;;;;;;;;;14.50;54.10;;;;;;5061886;28;19924;-69
2023/05/04 11:23:02;;;;;;;;;;;14.50;54.40;;;;;;5061003;28;19928;-67
2023/05/04 11:25:29;;;;;;;;;;;14.50;54.20;;;;;;5061433;28;19920;-67
2023/05/04 11:27:54;;;;;;;;;;;14.50;54.30;;;;;;5077758;28;19931;-67
2023/05/04 11:30:21;;;;;;;;;;;14.50;54.20;;;;;;5082084;28;19924;-67
2023/05/04 11:32:46;;;;;;;;;;;14.50;54.30;;;;;;5082513;28;20012;-67
2023/05/04 11:35:15;;;;;;;;;;;14.50;54.20;;;;;;5082375;28;19968;-67
2023/05/04 11:37:42;;;;;;;;;;;14.50;54.20;;;;;;5080100;28;20299;-67
2023/05/04 11:42:49;;;;;;;;;;;14.50;54.20;;;;;;5095088;27;19912;-68
2023/05/04 11:47:56;;;;;;;;;;;14.50;54.10;;;;;;5080706;28;19920;-67
2023/05/04 11:50:22;;;;;;;;;;;14.50;54.00;;;;;;5076556;28;19931;-67
2023/05/04 11:52:48;;;;;;;;;;;14.50;54.10;;;;;;5073713;28;19928;-67
2023/05/04 11:55:29;;;;;;;;;;;14.50;54.00;;;;;;5073749;28;19920;-67
2023/05/04 11:57:58;;;;;;;;;;;14.50;53.90;;;;;;5091289;28;19928;-67
2023/05/04 12:00:44;;;;;;;;;;;14.50;54.80;;;;;;5089573;28;19921;-68
2023/05/04 12:03:11;;;;;;;;;;;14.60;54.10;;;;;;5090356;28;19924;-67
2023/05/04 12:05:37;;;;;;;;;;;14.60;54.10;;;;;;5070185;28;20003;-67
2023/05/04 12:08:03;;;;;;;;;;;14.60;54.10;;;;;;5072472;28;20039;-69
2023/05/04 12:10:30;;;;;;;;;;;14.60;54.10;;;;;;5074362;28;19951;-68
2023/05/04 12:12:55;;;;;;;;;;;14.50;53.80;;;;;;5073226;28;19929;-67
2023/05/04 12:15:36;;;;;;;;;;;14.60;54.10;;;;;;5073091;28;20392;-67
2023/05/04 12:18:02;;;;;;;;;;;14.60;53.90;;;;;;5075915;28;19929;-69
2023/05/04 12:20:28;;;;;;;;;;;14.60;54.00;;;;;;5074937;28;20014;-68
2023/05/04 12:22:54;;;;;;;;;;;14.60;54.00;;;;;;5074245;28;19927;-67
2023/05/04 12:25:20;;;;;;;;;;;14.60;54.10;;;;;;5090755;28;19921;-68
2023/05/04 12:27:45;;;;;;;;;;;14.60;53.90;;;;;;5072896;28;19931;-68
2023/05/04 12:30:11;;;;;;;;;;;14.60;53.80;;;;;;5072992;28;19920;-67
2023/05/04 12:32:37;;;;;;;;;;;14.60;54.00;;;;;;5071015;28;19920;-67
2023/05/04 12:35:03;;;;;;;;;;;14.60;53.90;;;;;;5072788;28;19950;-67
2023/05/04 12:37:29;;;;;;;;;;;14.60;53.90;;;;;;5072797;28;19920;-67
2023/05/04 12:39:55;;;;;;;;;;;14.60;53.90;;;;;;5071097;28;19932;-67
2023/05/04 12:42:20;;;;;;;;;;;14.60;53.80;;;;;;5088486;28;19921;-67
2023/05/04 12:44:46;;;;;;;;;;;14.60;53.80;;;;;;5089200;28;20122;-68
2023/05/04 12:47:12;;;;;;;;;;;14.60;53.90;;;;;;5070389;28;19965;-69
2023/05/04 12:49:38;;;;;;;;;;;14.60;54.00;;;;;;5078968;28;20324;-67
2023/05/04 12:52:04;;;;;;;;;;;14.60;53.90;;;;;;5071147;28;20028;-67
2023/05/04 12:54:30;;;;;;;;;;;14.60;53.80;;;;;;5072529;28;19920;-66
2023/05/04 12:56:56;;;;;;;;;;;14.60;54.00;;;;;;5072265;28;20343;-67
2023/05/04 12:59:23;;;;;;;;;;;14.60;53.90;;;;;;5058312;28;19961;-67
2023/05/04 13:01:49;;;;;;;;;;;14.60;53.80;;;;;;5061260;28;19920;-68
2023/05/04 13:04:15;;;;;;;;;;;14.70;53.90;;;;;;5062948;28;19921;-67
2023/05/04 13:06:41;;;;;;;;;;;14.70;54.00;;;;;;5058212;28;19924;-67
2023/05/04 13:09:07;;;;;;;;;;;14.70;54.00;;;;;;5059340;28;20419;-67
2023/05/04 13:11:33;;;;;;;;;;;14.70;54.00;;;;;;5057950;28;20015;-67
2023/05/04 13:14:01;;;;;;;;;;;14.70;54.00;;;;;;5058457;28;19927;-66
2023/05/04 13:16:29;;;;;;;;;;;14.70;54.00;;;;;;5056856;28;19921;-67
2023/05/04 13:18:55;;;;;;;;;;;14.70;54.10;;;;;;5054075;28;19920;-66
2023/05/04 13:21:20;;;;;;;;;;;14.70;54.00;;;;;;5062387;28;19921;-67
2023/05/04 13:23:46;;;;;;;;;;;14.70;54.00;;;;;;5058699;28;19922;-67
2023/05/04 13:26:11;;;;;;;;;;;14.70;54.00;;;;;;5057680;28;20024;-67
2023/05/04 13:28:37;;;;;;;;;;;14.70;54.80;;;;;;5058959;28;19925;-67
2023/05/04 13:31:04;;;;;;;;;;;14.70;54.00;;;;;;5057659;28;20519;-67
2023/05/04 13:33:31;;;;;;;;;;;14.70;54.00;;;;;;5059286;28;19924;-67
2023/05/04 13:35:56;;;;;;;;;;;14.70;54.10;;;;;;5059374;28;19924;-67
2023/05/04 13:38:22;;;;;;;;;;;14.80;54.10;;;;;;5057135;28;19928;-67
2023/05/04 13:40:48;;;;;;;;;;;14.80;54.10;;;;;;5058485;28;19929;-67
2023/05/04 13:43:13;;;;;;;;;;;14.80;54.10;;;;;;5059807;28;19921;-67
2023/05/04 13:45:39;;;;;;;;;;;14.80;54.10;;;;;;5064152;28;19920;-67
2023/05/04 13:48:04;;;;;;;;;;;14.80;54.10;;;;;;5061348;28;19935;-67
2023/05/04 13:50:30;;;;;;;;;;;14.80;54.20;;;;;;5081547;28;20023;-68
2023/05/04 13:52:56;;;;;;;;;;;14.80;54.10;;;;;;5061621;28;19947;-67
2023/05/04 13:55:21;;;;;;;;;;;14.80;54.10;;;;;;5079579;28;19974;-67
2023/05/04 13:57:47;;;;;;;;;;;14.80;54.20;;;;;;5077333;28;20214;-66
2023/05/04 14:00:13;;;;;;;;;;;14.80;54.20;;;;;;5060102;28;20350;-67
2023/05/04 14:02:39;;;;;;;;;;;14.80;54.20;;;;;;5077873;28;19920;-67
2023/05/04 14:05:05;;;;;;;;;;;14.80;54.20;;;;;;5078846;28;19959;-67
2023/05/04 14:07:31;;;;;;;;;;;14.80;54.20;;;;;;5059222;28;19970;-67
2023/05/04 14:09:57;;;;;;;;;;;14.90;54.30;;;;;;5076877;28;19920;-67
2023/05/04 14:12:23;;;;;;;;;;;14.90;54.20;;;;;;5079471;28;20023;-68
2023/05/04 14:14:49;;;;;;;;;;;14.90;54.50;;;;;;5076984;28;20423;-68
2023/05/04 14:17:15;;;;;;;;;;;14.90;54.30;;;;;;5060913;28;19920;-67
2023/05/04 14:19:40;;;;;;;;;;;14.90;54.20;;;;;;5077207;28;19921;-67
2023/05/04 14:22:06;;;;;;;;;;;14.90;54.30;;;;;;5078736;28;20268;-67
2023/05/04 14:24:31;;;;;;;;;;;14.90;54.30;;;;;;5060921;28;19943;-67